KDXR

Danbury Municipal Airport

Danbury, Connecticut, USA
METAR KDXR 210400Z AUTO 00000KT 10SM FEW023 SCT028 OVC065 19/18 A3017 RMK AO2 T01940183
Observed Flight Rules
Aug-21 @ 04:00 UTC (11 minutes ago) Visual Flight Rules
Visibility Clouds
10 miles
  • Few at 2,300' AGL
  • Scattered at 2,800' AGL
  • Overcast at 6,500' AGL
Temperatures Readings
Current 19°C / 66°F
Dewpoint 18°C / 64°F
Humidity 94%
Altimeter 30.17" Hg
Pressure 1022 hPa
Elevation 139
METAR KDXR 210400Z AUTO 00000KT 10SM FEW023 SCT028 OVC065 19/18 A3017 RMK AO2 T01940183
Observed Flight Rules
Aug-21 @ 04:00 UTC
(11 minutes ago)
VFR
Clouds
  • Few at 2,300' AGL
  • Scattered at 2,800' AGL
  • Overcast at 6,500' AGL
Temperature Dewpoint
19°C / 66°F 18°C / 64°F
Humidity Altimeter Pressure
94% 30.17" Hg 1022 hPa